Nearby METAR Reports

 

KHQM - Hoquiam,WA, USA
Updated: Mon, 24-Sep-2018 9:53am PDT
Clear
Clear
 Wind from E
Wind: E 5 mph , 7 km/h
Temperature: 52°F , 11°C
Dew Point: 50°F , 10°C
Humidity: 94%
Barometer: 30.27 inHg , 1025.1 hPa
Clouds: Clear
Visibility: 9 miles , 14 km
2018/09/24 16:53 KHQM 241653Z AUTO 08004KT 9SM CLR 11/10 A3027 RMK AO2 SLP254 T01110100